MKJPSKCG

Guest
Details From MKJP - Norman Manley Intl
To SKCG - RAFAEL NUNEZ
Flight Number -
Tags generated
Created
Modified
Stats Distance 467 nm / 865 km
Max Altitude 33,500 ft / 10,211 m
Waypoints 7
Social Downloads 17
Likes 0
Share

Download

Looking for another format? Having issues loading an existing format? Contact us
Advertisement - Login to hide

Notes

Basic altitude profile: - Ascent Rate: 2500ft/min - Ascent Speed: 250kts - Cruise Altitude: 35000ft - Cruise Speed: 420kts - Descent Rate: 1500ft/min - Descent Speed: 250kts Options: - Use NATs: yes - Use PACOTS: yes - Use low airways: yes - Use high airways: yes

Route

MKJP MLY A301 OTAMO UA301 BOLAR A301 MORGI SKCG

ID Type Via Altitude (ft/m) Position (lat/lon) Dist (leg/tot) Name
O MKJP APT - 0 / 0 17.93567 / -76.78756 - / 0 nm Norman Manley Intl
MLY VOR - 200 / 61 17.93025 / -76.77764 0 / 0 nm MANLEY VOR-DME
ALPEN FIX A301 (AWY-LO) 13,400 / 4,084 17.29111 / -76.59917 39 / 40 nm
OTAMO FIX A301 (AWY-LO) 23,500 / 7,163 15.00000 / -75.98333 142 / 182 nm
BOLAR FIX UA301 (AWY-HI) 33,500 / 10,211 12.93528 / -75.41944 128 / 310 nm
MORGI FIX A301 (AWY-LO) 15,500 / 4,724 11.65611 / -75.08417 79 / 390 nm
O SKCG APT - 0 / 0 10.44238 / -75.51296 77 / 467 nm RAFAEL NUNEZ

Altitude Profile

Advertisement - Login to hide

Weather


0- 5 10 15 20 25 30 35+ Temperature / °C

Clouds and Precipitation
Forecast for 2022-05-21 00:00 UTC. Updated 11 hours ago

Ground ~20,000 ft ~40,000 ft Winds

MKJP

Details ICAO MKJP (KIN)
Name Norman Manley Intl
Region Jamaica
Timezone Unknown
Stats Elevation 7 ft / 2 m (AMSL)
Location 17.935700° -76.787600°
Runways 1
Magnetic Variation 8.038° W

METAR

MKJP 210800Z 36004KT 9999 FEW022 26/21 Q1016

Decode

TAF

TAF MKJP 210515Z 2106/2206 35008KT 9999 FEW022 BECMG 2214/2116 12025KT BECMG 2202/2204 35008KT

Decode

Departure Runways

ID Width Length Bearing (true/mag) Surface Threshold Overrun Markings Lighting
12 148 ft / 45 m 8,920 ft / 2,719 m 112.12° / 120.16° ASPHALT 0 ft / 0 m 56 ft / 17 m PREC-APP EDGE THRESHOLD SALS REIL-OMNI
30 148 ft / 45 m 8,920 ft / 2,719 m 292.13° / 300.17° ASPHALT 0 ft / 0 m 30 ft / 9 m PREC-APP EDGE THRESHOLD SALS REIL-OMNI

SKCG

Details ICAO SKCG (CTG)
Name Rafael Nunez Intl
Region Colombia
Timezone America/Bogota (UTC-5.0)
Stats Elevation 1 ft / 0 m (AMSL)
Location 10.441700° -75.512900°
Runways 1
Magnetic Variation 7.785° W

METAR

SKCG 210800Z 09003KT 9999 FEW017 SCT070 27/26 Q1012 RMK A2990

Decode

TAF

TAF SKCG 210430Z 2106/2206 VRB03KT 9999 FEW015 SCT070 BECMG 2115/2117 25010KT SCT017 PROB40 TEMPO 2118/2121 TS BKN017CB TX32/2118Z TN25/2110Z

Decode

Destination Runways

ID Width Length Bearing (true/mag) Surface Threshold Overrun Markings Lighting
01 148 ft / 45 m 7,849 ft / 2,392 m 2.32° / 10.11° ASPHALT 0 ft / 0 m 0 ft / 0 m PREC-APP EDGE THRESHOLD REIL-OMNI
19 148 ft / 45 m 7,849 ft / 2,392 m 182.32° / 190.11° ASPHALT 0 ft / 0 m 0 ft / 0 m PREC-APP EDGE THRESHOLD REIL-OMNI

Popular Alternatives